createdAt,value
2023-02-06T00:01:31.911Z,90.00
2023-02-06T00:03:59.831Z,90.00
2023-02-06T00:06:27.813Z,89.90
2023-02-06T00:08:55.727Z,90.20
2023-02-06T00:11:24.712Z,90.00
2023-02-06T00:13:52.838Z,90.00
2023-02-06T00:16:23.500Z,90.00
2023-02-06T00:18:54.988Z,90.10
2023-02-06T00:21:25.779Z,90.20
2023-02-06T00:23:55.416Z,90.20
2023-02-06T00:26:24.060Z,90.20
2023-02-06T00:28:52.052Z,89.90
2023-02-06T00:31:20.102Z,89.70
2023-02-06T00:33:48.283Z,90.10
2023-02-06T00:36:17.707Z,90.30
2023-02-06T00:38:45.652Z,90.20
2023-02-06T00:41:13.628Z,90.10
2023-02-06T00:43:43.369Z,90.10
2023-02-06T00:46:11.447Z,90.50
2023-02-06T00:48:39.443Z,90.30
2023-02-06T00:51:07.610Z,90.40
2023-02-06T00:53:36.904Z,90.40
2023-02-06T00:56:05.188Z,90.30
2023-02-06T00:58:33.113Z,90.30
2023-02-06T01:01:01.131Z,90.50
2023-02-06T01:03:29.034Z,90.40
2023-02-06T01:05:56.911Z,90.30
2023-02-06T01:08:24.817Z,90.20
2023-02-06T01:10:54.046Z,90.10
2023-02-06T01:13:22.598Z,90.10
2023-02-06T01:15:51.278Z,90.10
2023-02-06T01:18:19.407Z,90.20
2023-02-06T01:20:47.336Z,90.10
2023-02-06T01:23:15.256Z,90.00
2023-02-06T01:25:43.189Z,90.00
2023-02-06T01:28:12.549Z,90.10
2023-02-06T01:30:40.620Z,90.00
2023-02-06T01:33:08.545Z,90.00
2023-02-06T01:35:36.724Z,89.60
2023-02-06T01:38:04.984Z,89.80
2023-02-06T01:40:33.092Z,89.10
2023-02-06T01:43:02.030Z,88.80
2023-02-06T01:45:40.862Z,88.10
2023-02-06T01:48:14.205Z,89.20
2023-02-06T01:50:44.651Z,90.10
2023-02-06T01:53:15.805Z,90.10
2023-02-06T01:55:45.233Z,90.00
2023-02-06T01:58:21.531Z,90.00
2023-02-06T02:00:51.600Z,89.90
2023-02-06T02:03:19.682Z,89.80
2023-02-06T02:05:49.512Z,89.30
2023-02-06T02:08:21.397Z,89.20
2023-02-06T02:10:49.528Z,89.50
2023-02-06T02:13:17.823Z,89.40
2023-02-06T02:15:56.481Z,89.40
2023-02-06T02:18:38.729Z,89.40
2023-02-06T02:21:43.976Z,88.50
2023-02-06T02:24:19.720Z,89.20
2023-02-06T02:27:10.801Z,88.90
2023-02-06T02:30:12.256Z,88.90
2023-02-06T02:33:02.578Z,88.80
2023-02-06T02:35:40.767Z,87.90
2023-02-06T02:38:21.395Z,88.30
2023-02-06T02:40:55.602Z,89.70
2023-02-06T02:43:34.305Z,89.30
2023-02-06T02:46:09.780Z,89.10
2023-02-06T02:48:41.915Z,89.00
2023-02-06T02:51:12.344Z,89.20
2023-02-06T02:53:40.491Z,89.20
2023-02-06T02:56:16.825Z,89.60
2023-02-06T02:58:46.829Z,89.00
2023-02-06T03:01:20.178Z,87.90
2023-02-06T03:03:49.197Z,88.40
2023-02-06T03:07:07.552Z,89.20
2023-02-06T03:09:46.189Z,89.40
2023-02-06T03:12:20.841Z,87.90
2023-02-06T03:14:56.113Z,88.60
2023-02-06T03:17:31.456Z,88.60
2023-02-06T03:20:01.594Z,89.50
2023-02-06T03:22:33.011Z,88.30
2023-02-06T03:25:02.421Z,88.40
2023-02-06T03:27:32.072Z,89.20
2023-02-06T03:30:02.047Z,88.70
2023-02-06T03:32:33.108Z,88.70
2023-02-06T03:35:04.408Z,89.10
2023-02-06T03:37:35.286Z,88.80
2023-02-06T03:40:04.109Z,88.80
2023-02-06T03:42:33.640Z,88.90
2023-02-06T03:45:12.050Z,89.10
2023-02-06T03:47:40.528Z,89.30
2023-02-06T03:50:11.541Z,89.20
2023-02-06T03:52:45.708Z,89.00
2023-02-06T03:55:17.872Z,89.40
2023-02-06T03:57:49.489Z,89.60
2023-02-06T04:00:17.720Z,89.80
2023-02-06T04:02:48.416Z,90.00
2023-02-06T04:05:16.996Z,90.20
2023-02-06T04:07:46.392Z,90.30
2023-02-06T04:10:14.465Z,90.00
2023-02-06T04:12:42.390Z,90.20
2023-02-06T04:15:10.939Z,90.30
2023-02-06T04:17:53.580Z,90.20
2023-02-06T04:20:25.759Z,90.60
2023-02-06T04:22:55.628Z,90.60
2023-02-06T04:25:23.576Z,90.50
2023-02-06T04:27:52.065Z,90.40
2023-02-06T04:30:20.164Z,90.40
2023-02-06T04:32:48.143Z,90.70
2023-02-06T04:35:16.068Z,90.60
2023-02-06T04:37:44.008Z,90.60
2023-02-06T04:40:14.097Z,90.40
2023-02-06T04:42:42.085Z,90.20
2023-02-06T04:45:10.714Z,90.20
2023-02-06T04:47:38.726Z,90.60
2023-02-06T04:50:07.544Z,90.50
2023-02-06T04:52:35.585Z,90.30
2023-02-06T04:55:03.546Z,90.10
2023-02-06T04:57:33.697Z,90.00
2023-02-06T05:00:01.600Z,90.30
2023-02-06T05:02:29.593Z,90.10
2023-02-06T05:04:57.515Z,90.50
2023-02-06T05:07:25.503Z,90.10
2023-02-06T05:09:53.413Z,90.30
2023-02-06T05:12:21.291Z,90.40
2023-02-06T05:14:50.619Z,90.40
2023-02-06T05:17:18.644Z,90.70
2023-02-06T05:19:46.817Z,90.20
2023-02-06T05:22:14.846Z,90.00
2023-02-06T05:24:42.847Z,90.20
2023-02-06T05:27:10.924Z,89.60
2023-02-06T05:29:38.824Z,89.40
2023-02-06T05:32:08.322Z,89.10
2023-02-06T05:34:36.272Z,88.50
2023-02-06T05:37:04.210Z,88.90
2023-02-06T05:39:32.176Z,89.70
2023-02-06T05:42:00.169Z,89.90
2023-02-06T05:44:28.305Z,90.00
2023-02-06T05:46:56.447Z,89.70
2023-02-06T05:49:25.716Z,89.70
2023-02-06T05:51:53.603Z,90.40
2023-02-06T05:54:21.511Z,90.40
2023-02-06T05:56:49.425Z,90.20
2023-02-06T05:59:17.416Z,90.10
2023-02-06T06:01:46.379Z,90.10
2023-02-06T06:04:14.447Z,90.30
2023-02-06T06:06:43.766Z,89.80
2023-02-06T06:09:11.686Z,90.10
2023-02-06T06:11:39.755Z,90.20
2023-02-06T06:14:07.673Z,90.80
2023-02-06T06:16:35.966Z,90.60
2023-02-06T06:19:03.946Z,90.30
2023-02-06T06:21:31.921Z,90.30
2023-02-06T06:24:01.571Z,90.20
2023-02-06T06:26:29.665Z,90.40
2023-02-06T06:28:57.777Z,90.40
2023-02-06T06:31:25.738Z,90.60
2023-02-06T06:33:54.186Z,90.70
2023-02-06T06:36:22.325Z,90.80
2023-02-06T06:38:50.326Z,90.50
2023-02-06T06:41:19.766Z,90.60
2023-02-06T06:43:49.067Z,90.10
2023-02-06T06:46:18.882Z,90.00
2023-02-06T06:48:46.821Z,90.40
2023-02-06T06:51:14.846Z,90.40
2023-02-06T06:53:42.844Z,90.50
2023-02-06T06:56:14.316Z,90.40
2023-02-06T06:58:43.670Z,90.70
2023-02-06T07:01:11.652Z,90.80
2023-02-06T07:03:39.761Z,90.80
2023-02-06T07:06:07.891Z,90.90
2023-02-06T07:08:41.629Z,90.70
2023-02-06T07:11:09.819Z,91.10
2023-02-06T07:13:37.821Z,91.10
2023-02-06T07:16:07.457Z,91.40
2023-02-06T07:18:35.405Z,91.40
2023-02-06T07:21:04.115Z,91.00
2023-02-06T07:23:32.103Z,91.10
2023-02-06T07:26:02.315Z,91.20
2023-02-06T07:28:30.774Z,91.30
2023-02-06T07:31:01.301Z,91.50
2023-02-06T07:33:30.954Z,91.80
2023-02-06T07:35:59.289Z,91.60
2023-02-06T07:38:27.322Z,91.60
2023-02-06T07:40:55.324Z,91.60
2023-02-06T07:43:23.624Z,91.60
2023-02-06T07:45:51.559Z,91.50
2023-02-06T07:48:19.528Z,91.50
2023-02-06T07:50:48.775Z,91.40
2023-02-06T07:53:16.729Z,91.70
2023-02-06T07:55:44.595Z,92.10
2023-02-06T07:58:12.724Z,91.90
2023-02-06T08:00:41.164Z,91.80
2023-02-06T08:03:10.492Z,92.20
2023-02-06T08:05:39.654Z,92.10
2023-02-06T08:08:09.724Z,91.30
2023-02-06T08:10:39.724Z,92.20
2023-02-06T08:13:07.881Z,92.20
2023-02-06T08:15:36.108Z,92.20
2023-02-06T08:18:04.377Z,92.10
2023-02-06T08:20:32.336Z,91.90
2023-02-06T08:23:00.453Z,91.80
2023-02-06T08:25:29.762Z,91.50
2023-02-06T08:27:58.104Z,91.80
2023-02-06T08:30:26.436Z,91.70
2023-02-06T08:32:54.478Z,91.50
2023-02-06T08:35:22.476Z,90.90
2023-02-06T08:37:50.494Z,91.40
2023-02-06T08:40:18.941Z,91.40
2023-02-06T08:42:52.213Z,91.10
2023-02-06T08:45:20.240Z,91.20
2023-02-06T08:47:48.189Z,91.70
2023-02-06T08:50:16.805Z,91.50
2023-02-06T08:52:44.800Z,91.40
2023-02-06T08:55:12.739Z,91.00
2023-02-06T08:57:40.726Z,91.30
2023-02-06T09:00:11.507Z,91.30
2023-02-06T09:02:39.468Z,91.30
2023-02-06T09:05:07.605Z,90.90
2023-02-06T09:07:35.550Z,91.40
2023-02-06T09:10:03.465Z,91.20
2023-02-06T09:12:31.377Z,91.30
2023-02-06T09:14:59.687Z,90.90
2023-02-06T09:17:31.491Z,91.10
2023-02-06T09:19:59.440Z,90.90
2023-02-06T09:22:27.679Z,90.70
2023-02-06T09:24:55.745Z,90.20
2023-02-06T09:27:23.721Z,90.30
2023-02-06T09:29:51.603Z,90.00
2023-02-06T09:32:19.543Z,90.50
2023-02-06T09:34:49.320Z,90.10
2023-02-06T09:37:17.333Z,90.10
2023-02-06T09:39:45.315Z,90.10
2023-02-06T09:42:18.664Z,90.10
2023-02-06T09:44:51.736Z,90.00
2023-02-06T09:47:26.344Z,90.20
2023-02-06T09:49:59.399Z,90.40
2023-02-06T09:52:52.257Z,90.00
2023-02-06T09:55:28.496Z,89.80
2023-02-06T09:58:03.553Z,89.70
2023-02-06T10:00:38.643Z,89.50
2023-02-06T10:03:30.975Z,90.30
2023-02-06T10:06:12.175Z,90.30
2023-02-06T10:08:43.207Z,90.30
2023-02-06T10:11:16.947Z,90.20
2023-02-06T10:13:50.133Z,90.40
2023-02-06T10:16:33.496Z,90.50
2023-02-06T10:19:06.278Z,90.70
2023-02-06T10:21:41.287Z,90.60
2023-02-06T10:24:14.577Z,91.00
2023-02-06T10:26:42.710Z,90.80
2023-02-06T10:29:19.249Z,90.50
2023-02-06T10:32:00.572Z,90.20
2023-02-06T10:34:53.944Z,90.60
2023-02-06T10:37:37.545Z,90.30
2023-02-06T10:40:30.895Z,90.50
2023-02-06T10:43:04.206Z,90.80
2023-02-06T10:45:42.031Z,90.70
2023-02-06T10:48:26.256Z,90.50
2023-02-06T10:50:59.616Z,90.30
2023-02-06T10:53:33.015Z,90.10
2023-02-06T10:56:05.137Z,90.50
2023-02-06T10:58:38.533Z,90.40
2023-02-06T11:01:24.738Z,89.60
2023-02-06T11:04:00.054Z,90.20
2023-02-06T11:06:30.313Z,90.10
2023-02-06T11:08:59.724Z,89.90
2023-02-06T11:11:30.629Z,90.00
2023-02-06T11:14:06.481Z,89.30
2023-02-06T11:16:37.419Z,88.60
2023-02-06T11:19:16.828Z,88.10
2023-02-06T11:21:51.577Z,89.20
2023-02-06T11:24:23.519Z,88.30
2023-02-06T11:26:55.395Z,90.00
2023-02-06T11:29:26.788Z,89.90
2023-02-06T11:31:58.461Z,89.20
2023-02-06T11:34:30.036Z,90.30
2023-02-06T11:37:00.003Z,89.10
2023-02-06T11:39:32.481Z,88.30
2023-02-06T11:42:03.474Z,88.40
2023-02-06T11:44:38.128Z,88.30
2023-02-06T11:47:38.137Z,87.80
2023-02-06T11:50:23.895Z,87.00
2023-02-06T11:52:56.775Z,86.60
2023-02-06T11:55:29.101Z,87.30
2023-02-06T11:58:07.266Z,87.40
2023-02-06T12:00:38.097Z,87.10
2023-02-06T12:03:06.977Z,86.70
2023-02-06T12:05:40.385Z,86.30
2023-02-06T12:08:14.010Z,87.30
2023-02-06T12:10:52.374Z,87.30
2023-02-06T12:13:24.578Z,87.60
2023-02-06T12:15:55.087Z,85.20
2023-02-06T12:18:27.135Z,86.90
2023-02-06T12:20:59.063Z,87.80
2023-02-06T12:23:32.504Z,87.30
2023-02-06T12:26:06.052Z,86.60
2023-02-06T12:28:39.989Z,87.00
2023-02-06T12:31:13.903Z,87.50
2023-02-06T12:33:45.724Z,87.60
2023-02-06T12:36:17.248Z,88.30
2023-02-06T12:38:51.564Z,87.60
2023-02-06T12:41:44.040Z,86.60
2023-02-06T12:44:23.272Z,86.50
2023-02-06T12:46:58.556Z,86.70
2023-02-06T12:49:31.961Z,86.20
2023-02-06T12:52:10.374Z,86.80
2023-02-06T12:54:46.167Z,85.70
2023-02-06T12:57:20.844Z,86.30
2023-02-06T13:00:24.714Z,85.50
2023-02-06T13:03:15.968Z,85.80
2023-02-06T13:05:47.035Z,84.60
2023-02-06T13:08:19.255Z,85.10
2023-02-06T13:10:50.147Z,84.10
2023-02-06T13:13:32.446Z,84.80
2023-02-06T13:16:01.431Z,84.30
2023-02-06T13:19:02.779Z,84.50
2023-02-06T13:21:33.461Z,84.60
2023-02-06T13:24:16.387Z,84.60
2023-02-06T13:27:11.797Z,83.80
2023-02-06T13:29:44.319Z,83.90
2023-02-06T13:32:50.218Z,84.10
2023-02-06T13:35:28.276Z,85.50
2023-02-06T13:38:25.692Z,85.70
2023-02-06T13:41:31.016Z,85.40
2023-02-06T13:44:05.198Z,85.40
2023-02-06T13:47:08.481Z,85.30
2023-02-06T13:50:02.126Z,85.40
2023-02-06T13:52:39.894Z,84.90
2023-02-06T13:55:25.248Z,85.20
2023-02-06T13:58:13.204Z,85.60
2023-02-06T14:00:47.202Z,86.50
2023-02-06T14:03:23.340Z,86.30
2023-02-06T14:05:59.299Z,85.30
2023-02-06T14:08:40.529Z,85.00
2023-02-06T14:11:34.325Z,85.10
2023-02-06T14:14:31.634Z,83.90
2023-02-06T14:17:14.265Z,84.30
2023-02-06T14:19:50.560Z,84.90
2023-02-06T14:22:27.642Z,84.90
2023-02-06T14:25:10.187Z,84.60
2023-02-06T14:28:00.390Z,83.70
2023-02-06T14:30:38.765Z,85.50
2023-02-06T14:33:20.049Z,84.60
2023-02-06T14:36:07.760Z,84.10
2023-02-06T14:38:50.364Z,83.10
2023-02-06T14:41:18.859Z,83.10
2023-02-06T14:43:49.417Z,82.70
2023-02-06T14:46:19.564Z,83.50
2023-02-06T14:48:51.754Z,82.50
2023-02-06T14:51:26.528Z,82.60
2023-02-06T14:53:58.145Z,82.70
2023-02-06T14:56:29.163Z,82.80
2023-02-06T14:58:57.428Z,82.60
2023-02-06T15:01:27.953Z,82.10
2023-02-06T15:04:10.507Z,81.80
2023-02-06T15:06:41.506Z,82.30
2023-02-06T15:09:22.583Z,82.70
2023-02-06T15:11:52.514Z,82.20
2023-02-06T15:14:22.971Z,82.10
2023-02-06T15:16:52.261Z,81.70
2023-02-06T15:19:21.907Z,81.60
2023-02-06T15:21:53.666Z,81.90
2023-02-06T15:24:35.126Z,82.00
2023-02-06T15:27:11.594Z,81.80
2023-02-06T15:29:39.550Z,82.20
2023-02-06T15:32:18.022Z,81.80
2023-02-06T15:34:47.444Z,81.90
2023-02-06T15:37:29.928Z,82.00
2023-02-06T15:40:02.344Z,83.10
2023-02-06T15:42:30.567Z,83.20
2023-02-06T15:44:59.334Z,83.50
2023-02-06T15:47:27.386Z,83.50
2023-02-06T15:49:56.978Z,83.90
2023-02-06T15:52:39.429Z,85.10
2023-02-06T15:55:07.787Z,84.60
2023-02-06T15:57:43.813Z,84.80
2023-02-06T16:00:23.894Z,84.80
2023-02-06T16:02:54.291Z,85.80
2023-02-06T16:05:27.554Z,86.30
2023-02-06T16:07:57.317Z,86.30
2023-02-06T16:10:27.448Z,85.40
2023-02-06T16:12:57.437Z,85.40
2023-02-06T16:15:29.616Z,85.60
2023-02-06T16:17:59.913Z,86.10
2023-02-06T16:20:34.274Z,86.00
2023-02-06T16:23:25.354Z,86.00
2023-02-06T16:26:07.363Z,85.90
2023-02-06T16:28:42.652Z,86.40
2023-02-06T16:31:15.708Z,86.20
2023-02-06T16:33:45.676Z,85.20
2023-02-06T16:36:15.367Z,87.00
2023-02-06T16:38:51.183Z,87.30
2023-02-06T16:41:33.685Z,86.90
2023-02-06T16:44:02.706Z,86.40
2023-02-06T16:46:31.113Z,86.70
2023-02-06T16:49:00.599Z,86.70
2023-02-06T16:51:30.883Z,86.70
2023-02-06T16:54:00.276Z,86.50
2023-02-06T16:56:28.290Z,86.60
2023-02-06T16:58:57.744Z,86.40
2023-02-06T17:01:29.472Z,87.60
2023-02-06T17:03:57.550Z,87.40
2023-02-06T17:06:27.629Z,86.90
2023-02-06T17:09:03.334Z,86.70
2023-02-06T17:11:31.327Z,87.60
2023-02-06T17:13:59.542Z,87.00
2023-02-06T17:16:29.211Z,88.60
2023-02-06T17:18:57.539Z,88.00
2023-02-06T17:21:28.243Z,87.80
2023-02-06T17:23:56.163Z,87.20
2023-02-06T17:26:25.953Z,87.20
2023-02-06T17:28:53.973Z,87.10
2023-02-06T17:31:22.134Z,87.00
2023-02-06T17:33:50.474Z,87.60
2023-02-06T17:36:21.942Z,87.50
2023-02-06T17:38:50.009Z,87.20
2023-02-06T17:41:17.953Z,87.20
2023-02-06T17:43:47.270Z,87.20
2023-02-06T17:46:15.351Z,87.30
2023-02-06T17:48:44.485Z,87.60
2023-02-06T17:51:12.911Z,87.70
2023-02-06T17:53:41.276Z,87.10
2023-02-06T17:56:12.726Z,86.40
2023-02-06T17:58:41.442Z,86.30
2023-02-06T18:01:13.319Z,86.30
2023-02-06T18:03:41.458Z,86.80
2023-02-06T18:06:10.537Z,87.40
2023-02-06T18:08:39.065Z,88.40
2023-02-06T18:11:11.739Z,87.90
2023-02-06T18:13:40.152Z,87.60
2023-02-06T18:16:09.085Z,87.10
2023-02-06T18:18:38.513Z,87.10
2023-02-06T18:21:07.328Z,87.40
2023-02-06T18:23:35.702Z,87.90
2023-02-06T18:26:05.433Z,87.70
2023-02-06T18:28:35.364Z,87.20
2023-02-06T18:31:03.874Z,87.70
2023-02-06T18:33:33.920Z,87.10
2023-02-06T18:36:05.891Z,87.80
2023-02-06T18:38:34.145Z,88.20
2023-02-06T18:41:05.173Z,89.20
2023-02-06T18:43:34.805Z,88.60
2023-02-06T18:46:07.718Z,87.90
2023-02-06T18:48:36.364Z,87.30
2023-02-06T18:51:09.433Z,87.20
2023-02-06T18:53:37.420Z,87.70
2023-02-06T18:56:05.689Z,87.90
2023-02-06T18:58:33.591Z,87.50
2023-02-06T19:01:01.655Z,87.40
2023-02-06T19:03:29.631Z,87.80
2023-02-06T19:05:57.645Z,88.40
2023-02-06T19:08:26.966Z,88.60
2023-02-06T19:10:58.061Z,88.80
2023-02-06T19:13:26.029Z,89.30
2023-02-06T19:16:05.722Z,89.30
2023-02-06T19:18:38.839Z,89.60
2023-02-06T19:21:10.894Z,88.80
2023-02-06T19:23:40.547Z,88.00
2023-02-06T19:26:09.999Z,87.30
2023-02-06T19:28:39.227Z,88.20
2023-02-06T19:31:09.177Z,87.40
2023-02-06T19:33:40.278Z,87.50
2023-02-06T19:36:10.023Z,87.20
2023-02-06T19:38:38.289Z,87.30
2023-02-06T19:41:08.623Z,87.50
2023-02-06T19:43:37.418Z,89.10
2023-02-06T19:46:06.388Z,89.30
2023-02-06T19:48:34.491Z,89.10
2023-02-06T19:51:06.765Z,88.90
2023-02-06T19:53:35.392Z,88.80
2023-02-06T19:56:04.161Z,88.90
2023-02-06T19:58:33.522Z,88.90
2023-02-06T20:01:09.163Z,89.20
2023-02-06T20:03:37.490Z,89.20
2023-02-06T20:06:07.545Z,88.30
2023-02-06T20:08:35.464Z,88.60
2023-02-06T20:11:05.316Z,89.30
2023-02-06T20:13:35.218Z,88.70
2023-02-06T20:16:04.554Z,88.70
2023-02-06T20:18:33.828Z,87.80
2023-02-06T20:21:02.764Z,88.50
2023-02-06T20:23:31.398Z,88.30
2023-02-06T20:26:02.760Z,88.40
2023-02-06T20:28:31.132Z,88.10
2023-02-06T20:31:00.445Z,87.90
2023-02-06T20:33:28.734Z,88.00
2023-02-06T20:35:56.834Z,88.40
2023-02-06T20:38:25.343Z,88.60
2023-02-06T20:40:56.144Z,88.30
2023-02-06T20:43:24.099Z,88.30
2023-02-06T20:45:53.036Z,89.30
2023-02-06T20:48:22.637Z,89.60
2023-02-06T20:50:50.670Z,89.40
2023-02-06T20:53:18.563Z,89.40
2023-02-06T20:55:47.169Z,89.60
2023-02-06T20:58:15.112Z,89.60
2023-02-06T21:00:43.020Z,90.20
2023-02-06T21:03:11.097Z,90.40
2023-02-06T21:05:40.801Z,90.40
2023-02-06T21:08:09.398Z,90.30
2023-02-06T21:10:37.738Z,90.00
2023-02-06T21:13:05.846Z,89.70
2023-02-06T21:15:33.792Z,89.40
2023-02-06T21:18:01.850Z,89.20
2023-02-06T21:20:29.809Z,88.80
2023-02-06T21:22:59.135Z,88.50
2023-02-06T21:25:27.137Z,88.30
2023-02-06T21:27:55.380Z,88.30
2023-02-06T21:30:23.641Z,88.80
2023-02-06T21:32:51.577Z,88.90
2023-02-06T21:35:19.733Z,89.20
2023-02-06T21:37:47.724Z,89.10
2023-02-06T21:40:18.577Z,88.30
2023-02-06T21:42:46.472Z,88.80
2023-02-06T21:45:14.538Z,88.80
2023-02-06T21:47:42.457Z,88.90
2023-02-06T21:50:10.549Z,88.80
2023-02-06T21:52:39.164Z,88.90
2023-02-06T21:55:07.773Z,88.50
2023-02-06T21:57:37.073Z,88.30
2023-02-06T22:00:06.142Z,88.00
2023-02-06T22:02:34.093Z,87.50
2023-02-06T22:05:02.029Z,88.10
2023-02-06T22:07:30.033Z,88.20
2023-02-06T22:09:58.011Z,89.20
2023-02-06T22:12:26.001Z,89.30
2023-02-06T22:14:55.479Z,89.80
2023-02-06T22:17:23.553Z,89.90
2023-02-06T22:19:51.756Z,89.30
2023-02-06T22:22:19.667Z,88.70
2023-02-06T22:24:49.371Z,89.10
2023-02-06T22:27:17.560Z,89.40
2023-02-06T22:29:45.656Z,90.00
2023-02-06T22:32:14.939Z,89.60
2023-02-06T22:34:42.928Z,88.90
2023-02-06T22:37:10.953Z,89.00
2023-02-06T22:39:38.884Z,89.30
2023-02-06T22:42:06.985Z,89.40
2023-02-06T22:44:34.979Z,88.70
2023-02-06T22:47:03.312Z,88.20
2023-02-06T22:49:32.592Z,87.70
2023-02-06T22:52:00.564Z,88.30
2023-02-06T22:54:28.550Z,88.00
2023-02-06T22:56:56.520Z,88.00
2023-02-06T22:59:26.298Z,88.80
2023-02-06T23:01:55.835Z,88.70
2023-02-06T23:04:26.380Z,89.20
2023-02-06T23:06:55.753Z,88.60
2023-02-06T23:09:26.510Z,87.70
2023-02-06T23:11:58.259Z,86.80
2023-02-06T23:14:26.575Z,87.30
2023-02-06T23:16:54.554Z,87.30
2023-02-06T23:19:23.143Z,87.10
2023-02-06T23:21:52.122Z,87.60
2023-02-06T23:24:21.727Z,87.30
2023-02-06T23:26:51.054Z,87.40
2023-02-06T23:29:20.400Z,87.00
2023-02-06T23:31:49.126Z,87.20
2023-02-06T23:34:18.906Z,87.70
2023-02-06T23:36:47.822Z,87.00
2023-02-06T23:39:16.140Z,87.40
2023-02-06T23:41:45.484Z,88.40
2023-02-06T23:44:13.755Z,87.50
2023-02-06T23:46:42.939Z,87.80
2023-02-06T23:49:11.331Z,88.40
2023-02-06T23:51:39.610Z,88.10
2023-02-06T23:54:08.895Z,87.40
2023-02-06T23:56:38.114Z,87.60
2023-02-06T23:59:07.772Z,86.70
